Du har inga inställningar för hoppväder.nu

Hoppväder.nu

Senast uppdaterat 04:51

UTC-tid

2020-11-26 kl. 03:51


Sol och måne

Solen går upp 8:15 och går ner 15:29 (beräknade cirkatider)
Nästa fullmåne blir om 4 dagar (2020-11-30)

METAR

ESMX (Växjö)
(31 minuter sedan)
ESMX 260320Z AUTO 20009KT 3600 BR OVC002/// 05/05 Q1012=



ESMT (Halmstad)
(31 minuter sedan)
ESMT 260320Z AUTO 20010KT 7000 OVC008/// 07/05 Q1013=



ESGJ (Jönköping)
(31 minuter sedan)
ESGJ 260320Z AUTO 21011KT 3400 BR OVC003/// 06/06 Q1010=



ESMK (Everöd)
(31 minuter sedan)
ESMK 260320Z AUTO 23003KT 200V260 5000 BR OVC008/// 05/04 Q1014=






TAF

ESMX (Växjö)
ESMX



ESMT (Halmstad)
(25 minuter sedan)
ESMT 260326Z 2604/2612 22010KT 7000 BKN010 BECMG 2604/2606 2000 -RADZ BR BKN003 BECMG 2607/2609 30008KT 9999 NSW SCT020=



ESGJ (Jönköping)
(234 minuter sedan)
ESGJ AMD 252357Z 2600/2602 21013KT 6000 -DZ BKN003 PROB40 2600/2602 3000 BR BKN010=



ESMK (Everöd)
ESMK





Kodnycklar till TAF och METAR






LHP

(Feringe är område se22g i Delområde 2)

Prognos är inte uppdaterad






Preliminär prognos